Casper, WY

7:00 AM MDT on October 01, 2014 (GMT -0600)
Natrona County International | Change Station
CLOSE
Current Station
Airport
Location: Casper,
Elevation: 5289 ft
Nearby Weather Stations

Elev 5289 ft 42.90 °N, 106.47 °W | Updated 7 minutes ago

Mostly Cloudy
Mostly Cloudy
43 °F
Feels Like 35 °F
N
18
Wind Variable Wind from NE

Today
High -- | Low -- °F
--% Chance of Precip.
Yesterday
High -- | Low -- °F
Precip. -- in
7:02 AM 6:46 PM
Waxing Crescent, 47% visible
Pressure 29.82 in
Visibility 3.0 miles
Clouds Few 800 ft
Mostly Cloudy 1500 ft
Overcast 2800 ft
Windchill 35 °F
Dew Point 40 °F
Humidity 89%
Rainfall 0.15 in
Snow Depth 0 in , 0 in , 0 in
UV 0 out of 12
Pollen 2.80 out of 12
Air Quality Not available.
Flu Activity Not available.
METAR KCPR 011253Z 04016KT 3SM RA BR FEW008 BKN015 OVC028 06/04 A2990 RMK AO2 SLP096 P0012 T00610044

More Conditions Fewer Conditions

Pressure 29.82 in
Visibility 3.0 miles
Clouds Few 800 ft
Mostly Cloudy 1500 ft
Overcast 2800 ft
Windchill 35 °F
Dew Point 40 °F
Humidity 89%
Rainfall 0.15 in
Snow Depth 0 in , 0 in , 0 in
UV 0 out of 12
Pollen 2.80 out of 12
Air Quality Not available.
Flu Activity Not available.
METAR KCPR 011253Z 04016KT 3SM RA BR FEW008 BKN015 OVC028 06/04 A2990 RMK AO2 SLP096 P0012 T00610044

More Conditions Fewer Conditions

10-Day Weather Forecast

Almanac

Astronomy

Oct. 01, 2014 Rise Set
Actual Time 7:02 AM MDT 6:46 PM MDT
Civil Twilight 6:34 AM MDT 7:14 PM MDT
Nautical Twilight 6:01 AM MDT 7:47 PM MDT
Astronomical Twilight 5:28 AM MDT 8:20 PM MDT
Moon 2:11 PM MDT No Moon Set
Length of Visible Light 12h 40m
Length of Day
11h 43m
Tomorrow will be 2m 52s shorter.
Waxing Crescent, 47% of the Moon is Illuminated
Today
Waxing Crescent
Oct 1
First Quarter
Oct 8
Full
Oct 15
Last Quarter
Oct 23
New

Today's Extremes

State Highs State Lows

Community

WunderPhotos

Upload Photos

1,757,923 photos uploaded!

Nearby

Snow Depth

Station Depth Elevation
Burroughs Creek 0 in 8750 ft
Casper Mountain 0 in 7850 ft
Canyon 0 in 8090 ft
Two Ocean Plateau 4 in 9240 ft
Townsend Creek 0 in 8700 ft

Earthquake Activity

City Distance Mag. Time & Date
No recent earthquake activity has been reported nearby.
Minimum magnitude displayed is 2.5.

Coastal Water Temperatures

Place Temperature
No Stations Reporting

Nearby Weather Stations